createdAt,value
2015-11-15T00:00:35.057Z,7.3
2015-11-15T00:01:34.997Z,7.3
2015-11-15T00:02:34.984Z,7.3
2015-11-15T00:03:34.893Z,7.3
2015-11-15T00:04:34.833Z,7.3
2015-11-15T00:05:34.774Z,7.3
2015-11-15T00:06:34.714Z,7.2
2015-11-15T00:07:34.670Z,7.2
2015-11-15T00:08:34.610Z,7.2
2015-11-15T00:09:34.566Z,7.2
2015-11-15T00:10:34.538Z,7.2
2015-11-15T00:11:34.446Z,7.2
2015-11-15T00:12:34.387Z,7.2
2015-11-15T00:13:34.343Z,7.2
2015-11-15T00:14:34.299Z,7.3
2015-11-15T00:15:34.221Z,7.2
2015-11-15T00:16:34.192Z,7.2
2015-11-15T00:17:34.116Z,7.2
2015-11-15T00:18:34.057Z,7.3
2015-11-15T00:19:33.997Z,7.3
2015-11-15T00:20:33.937Z,7.3
2015-11-15T00:21:33.893Z,7.3
2015-11-15T00:22:33.833Z,7.3
2015-11-15T00:23:33.774Z,7.2
2015-11-15T00:24:33.730Z,7.2
2015-11-15T00:25:33.670Z,7.3
2015-11-15T00:26:33.657Z,7.3
2015-11-15T00:27:33.565Z,7.3
2015-11-15T00:28:33.491Z,7.3
2015-11-15T00:29:33.446Z,7.3
2015-11-15T00:30:33.387Z,7.3
2015-11-15T00:31:33.326Z,7.3
2015-11-15T00:32:33.283Z,7.3
2015-11-15T00:33:33.223Z,7.3
2015-11-15T00:34:33.163Z,7.3
2015-11-15T00:35:33.104Z,7.3
2015-11-15T00:37:33.015Z,7.3
2015-11-15T00:38:32.971Z,7.3
2015-11-15T00:39:32.896Z,7.3
2015-11-15T00:40:32.837Z,7.3
2015-11-15T00:41:32.776Z,7.3
2015-11-15T00:42:32.732Z,7.3
2015-11-15T00:43:32.673Z,7.3
2015-11-15T00:44:32.628Z,7.4
2015-11-15T00:45:32.600Z,7.4
2015-11-15T00:46:32.509Z,7.4
2015-11-15T00:47:32.449Z,7.4
2015-11-15T00:48:32.420Z,7.4
2015-11-15T00:49:32.346Z,7.4
2015-11-15T00:50:32.301Z,7.4
2015-11-15T00:51:32.242Z,7.4
2015-11-15T00:52:32.181Z,7.4
2015-11-15T00:53:32.122Z,7.4
2015-11-15T00:54:32.078Z,7.5
2015-11-15T00:55:32.000Z,7.4
2015-11-15T00:56:31.955Z,7.4
2015-11-15T00:57:31.895Z,7.4
2015-11-15T00:58:31.836Z,7.4
2015-11-15T00:59:31.807Z,7.5
2015-11-15T01:00:31.732Z,7.5
2015-11-15T01:01:31.672Z,7.5
2015-11-15T01:02:31.628Z,7.5
2015-11-15T01:03:31.568Z,7.5
2015-11-15T01:04:31.509Z,7.5
2015-11-15T01:05:31.448Z,7.5
2015-11-15T01:06:31.405Z,7.5
2015-11-15T01:07:31.361Z,7.5
2015-11-15T01:08:31.285Z,7.6
2015-11-15T01:09:31.256Z,7.5
2015-11-15T01:10:31.197Z,7.5
2015-11-15T01:11:31.122Z,7.5
2015-11-15T01:12:31.093Z,7.6
2015-11-15T01:13:31.017Z,7.6
2015-11-15T01:14:30.959Z,7.6
2015-11-15T01:15:30.898Z,7.6
2015-11-15T01:16:30.839Z,7.6
2015-11-15T01:17:30.794Z,7.6
2015-11-15T01:18:30.751Z,7.6
2015-11-15T01:19:30.676Z,7.6
2015-11-15T01:20:30.615Z,7.6
2015-11-15T01:21:30.571Z,7.7
2015-11-15T01:22:30.511Z,7.6
2015-11-15T01:23:30.467Z,7.7
2015-11-15T01:24:30.408Z,7.6
2015-11-15T01:25:30.364Z,7.6
2015-11-15T01:26:30.303Z,7.7
2015-11-15T01:27:30.228Z,7.7
2015-11-15T01:28:30.200Z,7.7
2015-11-15T01:29:30.125Z,7.7
2015-11-15T01:30:30.065Z,7.7
2015-11-15T01:31:30.021Z,7.7
2015-11-15T01:32:29.977Z,7.7
2015-11-15T01:33:29.898Z,7.8
2015-11-15T01:34:29.855Z,7.7
2015-11-15T01:35:29.795Z,7.8
2015-11-15T01:36:29.750Z,7.8
2015-11-15T01:37:29.691Z,7.8
2015-11-15T01:38:29.630Z,7.8
2015-11-15T01:39:29.586Z,7.8
2015-11-15T01:40:29.558Z,7.8
2015-11-15T01:41:29.467Z,7.8
2015-11-15T01:42:29.408Z,7.8
2015-11-15T01:43:29.348Z,7.8
2015-11-15T01:44:29.303Z,7.8
2015-11-15T01:45:29.275Z,7.8
2015-11-15T01:46:29.184Z,7.8
2015-11-15T01:47:29.156Z,7.9
2015-11-15T01:48:29.064Z,7.8
2015-11-15T01:49:29.021Z,7.8
2015-11-15T01:50:28.977Z,7.8
2015-11-15T01:51:28.902Z,7.8
2015-11-15T01:52:28.842Z,7.8
2015-11-15T01:53:28.798Z,7.8
2015-11-15T01:54:28.738Z,7.9
2015-11-15T01:55:28.694Z,7.9
2015-11-15T01:56:28.633Z,7.8
2015-11-15T01:57:28.574Z,7.9
2015-11-15T01:58:28.546Z,7.8
2015-11-15T01:59:28.486Z,7.8
2015-11-15T02:00:28.395Z,7.8
2015-11-15T02:01:28.382Z,7.8
2015-11-15T02:02:28.291Z,7.8
2015-11-15T02:03:28.247Z,7.8
2015-11-15T02:04:28.188Z,7.8
2015-11-15T02:05:28.128Z,7.8
2015-11-15T02:06:28.114Z,7.8
2015-11-15T02:07:28.039Z,7.8
2015-11-15T02:08:27.980Z,7.8
2015-11-15T02:09:27.904Z,7.8
2015-11-15T02:10:27.860Z,7.8
2015-11-15T02:11:27.797Z,7.7
2015-11-15T02:12:27.738Z,7.7
2015-11-15T02:13:27.694Z,7.7
2015-11-15T02:14:27.633Z,7.7
2015-11-15T02:15:27.574Z,7.7
2015-11-15T02:16:27.530Z,7.7
2015-11-15T02:17:27.485Z,7.7
2015-11-15T02:18:27.426Z,7.7
2015-11-15T02:19:27.351Z,7.7
2015-11-15T02:20:27.307Z,7.7
2015-11-15T02:21:27.247Z,7.7
2015-11-15T02:22:27.187Z,7.7
2015-11-15T02:23:27.127Z,7.7
2015-11-15T02:24:27.083Z,7.7
2015-11-15T02:25:27.023Z,7.8
2015-11-15T02:26:26.979Z,7.8
2015-11-15T02:27:27.107Z,7.8
2015-11-15T02:28:26.890Z,7.8
2015-11-15T02:29:26.799Z,7.8
2015-11-15T02:30:26.740Z,7.8
2015-11-15T02:31:26.712Z,7.8
2015-11-15T02:32:26.637Z,7.8
2015-11-15T02:33:26.576Z,7.8
2015-11-15T02:34:26.517Z,7.9
2015-11-15T02:35:26.473Z,7.8
2015-11-15T02:36:26.413Z,7.9
2015-11-15T02:37:26.354Z,7.8
2015-11-15T02:38:29.372Z,7.9
2015-11-15T02:39:26.281Z,7.8
2015-11-15T02:40:26.205Z,7.8
2015-11-15T02:41:26.145Z,7.8
2015-11-15T02:42:26.085Z,7.8
2015-11-15T02:43:26.043Z,7.8
2015-11-15T02:44:25.982Z,7.8
2015-11-15T02:45:25.923Z,7.8
2015-11-15T02:46:25.879Z,7.8
2015-11-15T02:47:25.818Z,7.8
2015-11-15T02:48:25.759Z,7.8
2015-11-15T02:49:25.715Z,7.8
2015-11-15T02:50:25.671Z,7.8
2015-11-15T02:51:25.593Z,7.8
2015-11-15T02:52:25.532Z,7.8
2015-11-15T02:53:25.520Z,7.8
2015-11-15T02:54:25.413Z,7.8
2015-11-15T02:55:25.369Z,7.8
2015-11-15T02:56:25.309Z,7.8
2015-11-15T02:57:25.249Z,7.8
2015-11-15T02:58:25.237Z,7.7
2015-11-15T02:59:25.146Z,7.8
2015-11-15T03:00:25.086Z,7.8
2015-11-15T03:01:25.057Z,7.8
2015-11-15T03:02:24.981Z,7.8
2015-11-15T03:03:24.923Z,7.8
2015-11-15T03:04:24.878Z,7.8
2015-11-15T03:05:24.818Z,7.8
2015-11-15T03:06:24.790Z,7.8
2015-11-15T03:07:24.699Z,7.8
2015-11-15T03:08:24.639Z,7.8
2015-11-15T03:09:24.579Z,7.7
2015-11-15T03:10:24.535Z,7.8
2015-11-15T03:11:24.476Z,7.8
2015-11-15T03:12:24.432Z,7.8
2015-11-15T03:13:24.373Z,7.7
2015-11-15T03:14:24.312Z,7.8
2015-11-15T03:15:24.268Z,7.8
2015-11-15T03:16:24.193Z,7.8
2015-11-15T03:17:24.149Z,7.8
2015-11-15T03:18:24.089Z,7.8
2015-11-15T03:19:24.045Z,7.8
2015-11-15T03:20:23.984Z,7.8
2015-11-15T03:21:23.925Z,7.8
2015-11-15T03:22:23.897Z,7.8
2015-11-15T03:23:23.821Z,7.8
2015-11-15T03:24:23.762Z,7.8
2015-11-15T03:25:23.702Z,7.8
2015-11-15T03:26:23.642Z,7.8
2015-11-15T03:27:23.597Z,7.8
2015-11-15T03:28:23.538Z,7.8
2015-11-15T03:29:23.491Z,7.8
2015-11-15T03:30:23.431Z,7.9
2015-11-15T03:31:23.372Z,7.8
2015-11-15T03:32:23.312Z,7.9
2015-11-15T03:33:23.253Z,7.8
2015-11-15T03:34:23.208Z,7.8
2015-11-15T03:35:23.148Z,7.8
2015-11-15T03:36:23.104Z,7.8
2015-11-15T03:37:23.044Z,7.9
2015-11-15T03:38:22.984Z,7.8
2015-11-15T03:39:22.925Z,7.8
2015-11-15T03:40:22.865Z,7.9
2015-11-15T03:41:22.821Z,7.9
2015-11-15T03:42:22.761Z,7.9
2015-11-15T03:43:22.702Z,7.9
2015-11-15T03:44:22.658Z,7.9
2015-11-15T03:45:22.597Z,7.9
2015-11-15T03:46:22.538Z,7.9
2015-11-15T03:47:22.478Z,7.9
2015-11-15T03:48:22.433Z,7.9
2015-11-15T03:49:22.405Z,7.9
2015-11-15T03:50:22.330Z,7.9
2015-11-15T03:51:22.270Z,7.9
2015-11-15T03:52:22.211Z,7.9
2015-11-15T03:53:22.151Z,7.9
2015-11-15T03:54:22.107Z,7.9
2015-11-15T03:55:22.047Z,8
2015-11-15T03:56:22.003Z,8
2015-11-15T03:57:21.975Z,8
2015-11-15T03:58:21.883Z,8
2015-11-15T03:59:21.824Z,7.9
2015-11-15T04:00:21.795Z,7.9
2015-11-15T04:01:21.705Z,8
2015-11-15T04:02:21.660Z,8
2015-11-15T04:03:21.601Z,8
2015-11-15T04:04:21.556Z,8
2015-11-15T04:05:21.513Z,8
2015-11-15T04:06:21.452Z,8
2015-11-15T04:07:21.377Z,8
2015-11-15T04:08:21.333Z,8
2015-11-15T04:09:21.273Z,8
2015-11-15T04:10:21.210Z,8.1
2015-11-15T04:11:21.197Z,8.1
2015-11-15T04:12:21.107Z,8.1
2015-11-15T04:13:21.063Z,8.1
2015-11-15T04:14:21.002Z,8.1
2015-11-15T04:15:20.943Z,8.2
2015-11-15T04:16:20.883Z,8.1
2015-11-15T04:17:20.839Z,8.1
2015-11-15T04:18:20.780Z,8.1
2015-11-15T04:19:20.735Z,8.1
2015-11-15T04:20:20.676Z,8.1
2015-11-15T04:21:20.616Z,8.2
2015-11-15T04:22:20.557Z,8.2
2015-11-15T04:23:20.513Z,8.2
2015-11-15T04:24:20.468Z,8.3
2015-11-15T04:25:20.393Z,8.3
2015-11-15T04:26:20.349Z,8.3
2015-11-15T04:27:20.289Z,8.4
2015-11-15T04:28:20.260Z,8.3
2015-11-15T04:29:20.185Z,8.3
2015-11-15T04:30:20.124Z,8.3
2015-11-15T04:31:20.065Z,8.4
2015-11-15T04:32:20.037Z,8.4
2015-11-15T04:33:19.962Z,8.4
2015-11-15T04:34:19.901Z,8.5
2015-11-15T04:35:19.874Z,8.5
2015-11-15T04:36:19.798Z,8.5
2015-11-15T04:37:19.754Z,8.5
2015-11-15T04:38:19.694Z,8.5
2015-11-15T04:39:19.635Z,8.5
2015-11-15T04:40:19.591Z,8.6
2015-11-15T04:41:19.531Z,8.6
2015-11-15T04:42:19.471Z,8.6
2015-11-15T04:43:19.427Z,8.6
2015-11-15T04:44:19.368Z,8.6
2015-11-15T04:45:19.308Z,8.6
2015-11-15T04:46:19.263Z,8.7
2015-11-15T04:47:19.204Z,8.7
2015-11-15T04:48:19.159Z,8.7
2015-11-15T04:49:19.096Z,8.7
2015-11-15T04:50:19.052Z,8.7
2015-11-15T04:51:18.993Z,8.7
2015-11-15T04:52:18.933Z,8.8
2015-11-15T04:53:18.873Z,8.8
2015-11-15T04:54:18.829Z,8.8
2015-11-15T04:55:18.770Z,8.8
2015-11-15T04:56:18.726Z,8.9
2015-11-15T04:57:18.665Z,8.9
2015-11-15T04:58:18.606Z,8.9
2015-11-15T04:59:18.546Z,8.9
2015-11-15T05:00:18.501Z,9
2015-11-15T05:01:18.443Z,9
2015-11-15T05:02:18.398Z,9
2015-11-15T05:03:18.338Z,9
2015-11-15T05:04:18.278Z,9
2015-11-15T05:05:18.235Z,9
2015-11-15T05:06:18.175Z,9.1
2015-11-15T05:07:18.130Z,9.1
2015-11-15T05:08:18.087Z,9.1
2015-11-15T05:09:18.011Z,9.1
2015-11-15T05:10:17.967Z,9.1
2015-11-15T05:11:17.907Z,9.1
2015-11-15T05:12:17.848Z,9.1
2015-11-15T05:13:17.804Z,9.1
2015-11-15T05:14:17.743Z,9.1
2015-11-15T05:15:17.700Z,9.1
2015-11-15T05:16:17.640Z,9.1
2015-11-15T05:17:17.595Z,9.1
2015-11-15T05:18:17.536Z,9.1
2015-11-15T05:19:17.492Z,9.1
2015-11-15T05:20:17.431Z,9.1
2015-11-15T05:21:17.403Z,9.1
2015-11-15T05:22:17.328Z,9.1
2015-11-15T05:23:17.268Z,9.1
2015-11-15T05:24:17.240Z,9.2
2015-11-15T05:25:17.165Z,9.2
2015-11-15T05:26:17.120Z,9.2
2015-11-15T05:27:17.061Z,9.2
2015-11-15T05:28:16.998Z,9.2
2015-11-15T05:29:16.953Z,9.2
2015-11-15T05:30:16.894Z,9.2
2015-11-15T05:31:16.834Z,9.2
2015-11-15T05:32:16.775Z,9.3
2015-11-15T05:33:16.731Z,9.2
2015-11-15T05:34:16.670Z,9.2
2015-11-15T05:35:16.611Z,9.2
2015-11-15T05:36:16.567Z,9.3
2015-11-15T05:37:16.522Z,9.3
2015-11-15T05:38:16.478Z,9.3
2015-11-15T05:39:16.403Z,9.3
2015-11-15T05:40:16.344Z,9.3
2015-11-15T05:41:16.315Z,9.3
2015-11-15T05:42:16.239Z,9.3
2015-11-15T05:43:16.195Z,9.4
2015-11-15T05:44:16.136Z,9.4
2015-11-15T05:45:16.076Z,9.4
2015-11-15T05:46:16.063Z,9.4
2015-11-15T05:47:15.989Z,9.3
2015-11-15T05:48:15.944Z,9.4
2015-11-15T05:49:15.884Z,9.4
2015-11-15T05:50:15.808Z,9.4
2015-11-15T05:51:15.750Z,9.4
2015-11-15T05:52:15.705Z,9.4
2015-11-15T05:53:15.645Z,9.4
2015-11-15T05:54:15.601Z,9.4
2015-11-15T05:55:15.541Z,9.4
2015-11-15T05:56:15.497Z,9.4
2015-11-15T05:57:15.438Z,9.4
2015-11-15T05:58:15.378Z,9.4
2015-11-15T05:59:15.334Z,9.4
2015-11-15T06:00:15.274Z,9.4
2015-11-15T06:01:15.230Z,9.4
2015-11-15T06:02:15.186Z,9.4
2015-11-15T06:03:15.111Z,9.5
2015-11-15T06:04:15.050Z,9.5
2015-11-15T06:05:15.022Z,9.5
2015-11-15T06:06:14.947Z,9.5
2015-11-15T06:07:14.886Z,9.5
2015-11-15T06:08:14.824Z,9.5
2015-11-15T06:09:14.780Z,9.5
2015-11-15T06:10:14.721Z,9.5
2015-11-15T06:11:14.677Z,9.5
2015-11-15T06:12:14.617Z,9.5
2015-11-15T06:13:14.557Z,9.5
2015-11-15T06:14:14.513Z,9.5
2015-11-15T06:15:14.452Z,9.5
2015-11-15T06:16:14.409Z,9.5
2015-11-15T06:17:14.349Z,9.6
2015-11-15T06:18:14.321Z,9.6
2015-11-15T06:19:14.246Z,9.6
2015-11-15T06:20:14.186Z,9.6
2015-11-15T06:21:14.126Z,9.6
2015-11-15T06:22:14.082Z,9.6
2015-11-15T06:23:14.017Z,9.6
2015-11-15T06:24:13.943Z,9.6
2015-11-15T06:25:13.884Z,9.6
2015-11-15T06:26:13.841Z,9.7
2015-11-15T06:27:13.735Z,9.7
2015-11-15T06:28:13.681Z,9.7
2015-11-15T06:29:13.616Z,9.7
2015-11-15T06:30:13.551Z,9.7
2015-11-15T06:31:13.502Z,9.7
2015-11-15T06:32:13.453Z,9.7
2015-11-15T06:33:13.374Z,9.7
2015-11-15T06:34:13.328Z,9.7
2015-11-15T06:35:13.267Z,9.7
2015-11-15T06:36:13.204Z,9.7
2015-11-15T06:37:13.158Z,9.7
2015-11-15T06:38:13.098Z,9.8
2015-11-15T06:39:13.037Z,9.8
2015-11-15T06:40:13.008Z,9.8
2015-11-15T06:41:12.932Z,9.8
2015-11-15T06:42:12.871Z,9.8
2015-11-15T06:43:12.827Z,9.8
2015-11-15T06:44:12.768Z,9.8
2015-11-15T06:45:12.708Z,9.8
2015-11-15T06:46:12.664Z,9.9
2015-11-15T06:48:12.556Z,9.8
2015-11-15T06:49:12.497Z,9.8
2015-11-15T06:50:12.437Z,9.9
2015-11-15T06:51:12.393Z,9.9
2015-11-15T06:52:12.333Z,9.8
2015-11-15T06:53:12.306Z,9.9
2015-11-15T06:54:12.230Z,9.9
2015-11-15T06:55:12.170Z,9.9
2015-11-15T06:56:12.141Z,9.9
2015-11-15T06:57:12.066Z,9.9
2015-11-15T06:58:12.022Z,9.9
2015-11-15T06:59:12.072Z,9.9
2015-11-15T07:00:11.981Z,9.9
2015-11-15T07:01:12.031Z,9.9
2015-11-15T07:02:11.798Z,9.9
2015-11-15T07:03:11.739Z,9.9
2015-11-15T07:04:11.725Z,9.9
2015-11-15T07:05:11.666Z,9.9
2015-11-15T07:06:11.575Z,9.9
2015-11-15T07:07:11.531Z,9.9
2015-11-15T07:08:11.472Z,10
2015-11-15T07:09:11.442Z,10
2015-11-15T07:10:11.383Z,10
2015-11-15T07:11:11.308Z,10
2015-11-15T07:12:11.248Z,10
2015-11-15T07:13:11.204Z,10
2015-11-15T07:14:11.144Z,10.1
2015-11-15T07:15:11.100Z,10.1
2015-11-15T07:16:11.041Z,10.2
2015-11-15T07:17:10.981Z,10.2
2015-11-15T07:18:10.936Z,10.2
2015-11-15T07:19:10.877Z,10.3
2015-11-15T07:20:10.848Z,10.4
2015-11-15T07:21:10.772Z,10.4
2015-11-15T07:22:10.713Z,10.4
2015-11-15T07:23:10.654Z,10.4
2015-11-15T07:24:10.624Z,10.4
2015-11-15T07:25:10.546Z,10.4
2015-11-15T07:26:10.549Z,10.4
2015-11-15T07:27:10.479Z,10.5
2015-11-15T07:28:10.434Z,10.5
2015-11-15T07:29:10.326Z,10.5
2015-11-15T07:30:10.284Z,10.5
2015-11-15T07:31:10.224Z,10.5
2015-11-15T07:32:10.179Z,10.5
2015-11-15T07:33:10.120Z,10.5
2015-11-15T07:34:10.059Z,10.5
2015-11-15T07:35:10.000Z,10.5
2015-11-15T07:36:09.956Z,10.5
2015-11-15T07:37:09.911Z,10.5
2015-11-15T07:38:09.852Z,10.6
2015-11-15T07:39:09.792Z,10.6
2015-11-15T07:40:09.732Z,10.6
2015-11-15T07:41:09.689Z,10.6
2015-11-15T07:42:09.629Z,10.7
2015-11-15T07:43:09.585Z,10.7
2015-11-15T07:44:09.525Z,10.7
2015-11-15T07:45:09.465Z,10.7
2015-11-15T07:46:09.420Z,10.7
2015-11-15T07:47:09.362Z,10.7
2015-11-15T07:48:09.318Z,10.7
2015-11-15T07:49:09.257Z,10.7
2015-11-15T07:50:09.198Z,10.7
2015-11-15T07:51:09.154Z,10.9
2015-11-15T07:52:09.094Z,10.9
2015-11-15T07:53:09.034Z,10.9
2015-11-15T07:54:08.974Z,10.9
2015-11-15T07:55:08.931Z,10.9
2015-11-15T07:56:08.886Z,11
2015-11-15T07:57:08.826Z,10.9
2015-11-15T07:58:08.767Z,11
2015-11-15T07:59:08.739Z,11
2015-11-15T08:00:08.662Z,11
2015-11-15T08:01:08.603Z,11
2015-11-15T08:02:08.559Z,11
2015-11-15T08:03:08.499Z,11
2015-11-15T08:04:08.470Z,11
2015-11-15T08:05:08.392Z,11
2015-11-15T08:06:08.333Z,11.1
2015-11-15T08:07:08.289Z,11.1
2015-11-15T08:08:08.229Z,11.1
2015-11-15T08:09:08.170Z,11.1
2015-11-15T08:10:08.125Z,11.1
2015-11-15T08:11:08.065Z,11.2
2015-11-15T08:12:08.022Z,11.1
2015-11-15T08:13:07.961Z,11.1
2015-11-15T08:14:07.902Z,11.2
2015-11-15T08:15:07.858Z,11.2
2015-11-15T08:16:07.797Z,11.3
2015-11-15T08:17:07.753Z,11.3
2015-11-15T08:18:07.709Z,11.3
2015-11-15T08:19:07.650Z,11.4
2015-11-15T08:20:07.606Z,11.3
2015-11-15T08:21:07.530Z,11.4
2015-11-15T08:22:07.470Z,11.4
2015-11-15T08:23:07.427Z,11.4
2015-11-15T08:24:07.367Z,11.6
2015-11-15T08:25:07.339Z,11.5
2015-11-15T08:26:07.263Z,11.6
2015-11-15T08:27:07.219Z,11.5
2015-11-15T08:28:07.175Z,11.5
2015-11-15T08:29:07.114Z,11.6
2015-11-15T08:30:07.056Z,11.6
2015-11-15T08:31:06.995Z,11.5
2015-11-15T08:32:06.951Z,11.6
2015-11-15T08:33:06.891Z,11.6
2015-11-15T08:34:06.848Z,11.6
2015-11-15T08:35:06.788Z,11.6
2015-11-15T08:36:06.728Z,11.6
2015-11-15T08:37:06.683Z,11.6
2015-11-15T08:38:06.625Z,11.6
2015-11-15T08:39:06.580Z,11.6
2015-11-15T08:40:06.520Z,11.6
2015-11-15T08:41:06.492Z,11.6
2015-11-15T08:42:06.417Z,11.7
2015-11-15T08:43:06.357Z,11.7
2015-11-15T08:44:06.294Z,11.6
2015-11-15T08:45:06.249Z,11.6
2015-11-15T08:46:06.190Z,11.7
2015-11-15T08:47:06.146Z,11.6
2015-11-15T08:48:06.086Z,11.7
2015-11-15T08:49:06.041Z,11.6
2015-11-15T08:50:05.983Z,11.6
2015-11-15T08:51:05.922Z,11.6
2015-11-15T08:52:05.879Z,11.6
2015-11-15T08:53:05.819Z,11.6
2015-11-15T08:54:05.774Z,11.6
2015-11-15T08:55:05.716Z,11.7
2015-11-15T08:56:05.686Z,11.7
2015-11-15T08:57:05.627Z,11.8
2015-11-15T08:58:05.567Z,11.8
2015-11-15T08:59:05.508Z,11.8
2015-11-15T09:00:05.463Z,11.8
2015-11-15T09:01:05.404Z,11.8
2015-11-15T09:02:05.344Z,11.7
2015-11-15T09:03:05.285Z,11.7
2015-11-15T09:04:05.240Z,11.8
2015-11-15T09:05:05.180Z,11.8
2015-11-15T09:06:05.136Z,11.8
2015-11-15T09:07:05.091Z,11.8
2015-11-15T09:08:05.032Z,11.9
2015-11-15T09:09:04.972Z,11.9
2015-11-15T09:10:04.929Z,11.9
2015-11-15T09:11:04.900Z,11.9
2015-11-15T09:12:04.809Z,11.9
2015-11-15T09:13:04.765Z,11.9
2015-11-15T09:14:04.705Z,11.9
2015-11-15T09:15:04.661Z,11.9
2015-11-15T09:16:04.601Z,11.9
2015-11-15T09:17:04.541Z,12
2015-11-15T09:18:04.716Z,12.1
2015-11-15T09:19:04.454Z,12.1
2015-11-15T09:20:04.410Z,12.1
2015-11-15T09:21:04.332Z,12.1
2015-11-15T09:22:04.287Z,12.1
2015-11-15T09:23:04.274Z,12.1
2015-11-15T09:24:04.182Z,12.2
2015-11-15T09:25:04.123Z,12.2
2015-11-15T09:26:04.110Z,12.2
2015-11-15T09:27:04.034Z,12.2
2015-11-15T09:28:03.990Z,12.2
2015-11-15T09:29:03.915Z,12.2
2015-11-15T09:30:03.871Z,12.2
2015-11-15T09:31:03.983Z,12.2
2015-11-15T09:32:03.752Z,12.2
2015-11-15T09:33:03.707Z,12.2
2015-11-15T09:34:03.648Z,12.2
2015-11-15T09:35:03.604Z,12.3
2015-11-15T09:36:03.544Z,12.3
2015-11-15T09:37:03.500Z,12.3
2015-11-15T09:38:03.440Z,12.3
2015-11-15T09:39:03.396Z,12.3
2015-11-15T09:40:03.337Z,12.3
2015-11-15T09:41:03.307Z,12.4
2015-11-15T09:42:03.233Z,12.4
2015-11-15T09:43:03.188Z,12.4
2015-11-15T09:44:03.129Z,12.4
2015-11-15T09:45:03.085Z,12.4
2015-11-15T09:46:03.025Z,12.5
2015-11-15T09:47:02.965Z,12.5
2015-11-15T09:48:02.920Z,12.5
2015-11-15T09:49:02.892Z,12.5
2015-11-15T09:50:02.817Z,12.5
2015-11-15T09:51:02.773Z,12.5
2015-11-15T09:52:02.713Z,12.5
2015-11-15T09:53:02.654Z,12.5
2015-11-15T09:54:02.609Z,12.5
2015-11-15T09:55:02.550Z,12.5
2015-11-15T09:56:02.521Z,12.5
2015-11-15T09:57:02.445Z,12.5
2015-11-15T09:58:02.386Z,12.5
2015-11-15T09:59:02.357Z,12.5
2015-11-15T10:00:02.279Z,12.5
2015-11-15T10:01:02.235Z,12.5
2015-11-15T10:02:02.176Z,12.6
2015-11-15T10:03:02.147Z,12.6
2015-11-15T10:04:02.072Z,12.6
2015-11-15T10:05:02.028Z,12.6
2015-11-15T10:06:01.967Z,12.7
2015-11-15T10:07:01.939Z,12.7
2015-11-15T10:08:01.864Z,12.7
2015-11-15T10:09:01.803Z,12.7
2015-11-15T10:10:01.759Z,12.7
2015-11-15T10:11:01.700Z,12.8
2015-11-15T10:12:01.656Z,12.8
2015-11-15T10:13:01.597Z,12.9
2015-11-15T10:14:01.552Z,12.9
2015-11-15T10:15:01.508Z,12.9
2015-11-15T10:16:01.448Z,12.9
2015-11-15T10:17:01.389Z,13
2015-11-15T10:18:01.344Z,13
2015-11-15T10:19:01.285Z,13
2015-11-15T10:20:01.225Z,13
2015-11-15T10:21:01.181Z,13
2015-11-15T10:22:01.122Z,13.1
2015-11-15T10:23:01.077Z,13.1
2015-11-15T10:24:01.017Z,13.1
2015-11-15T10:25:00.973Z,13.1
2015-11-15T10:26:00.914Z,13.1
2015-11-15T10:27:00.870Z,13.1
2015-11-15T10:28:00.810Z,13.1
2015-11-15T10:29:00.751Z,13.1
2015-11-15T10:30:00.705Z,13.1
2015-11-15T10:31:00.646Z,13.1
2015-11-15T10:32:00.603Z,13.1
2015-11-15T10:33:00.558Z,13.1
2015-11-15T10:34:00.498Z,13.1
2015-11-15T10:35:00.845Z,13.1
2015-11-15T10:36:00.394Z,13.1
2015-11-15T10:37:00.334Z,13.1
2015-11-15T10:38:00.290Z,13.1
2015-11-15T10:39:00.227Z,13.2
2015-11-15T10:40:00.169Z,13.2
2015-11-15T10:41:00.124Z,13.2
2015-11-15T10:42:00.064Z,13.2
2015-11-15T10:43:00.020Z,13.2
2015-11-15T10:43:59.976Z,13.2
2015-11-15T10:44:59.916Z,13.2
2015-11-15T10:45:59.872Z,13.2
2015-11-15T10:46:59.813Z,13.2
2015-11-15T10:47:59.769Z,13.2
2015-11-15T10:48:59.708Z,13.2
2015-11-15T10:49:59.649Z,13.2
2015-11-15T10:50:59.605Z,13.2
2015-11-15T10:51:59.544Z,13.3
2015-11-15T10:52:59.500Z,13.2
2015-11-15T10:53:59.441Z,13.2
2015-11-15T10:54:59.381Z,13.2
2015-11-15T10:55:59.337Z,13.2
2015-11-15T10:56:59.293Z,13.2
2015-11-15T10:57:59.233Z,13.2
2015-11-15T10:58:59.189Z,13.2
2015-11-15T10:59:59.129Z,13.2
2015-11-15T11:00:59.069Z,13.2
2015-11-15T11:01:59.025Z,13.2
2015-11-15T11:02:58.982Z,13.1
2015-11-15T11:03:58.922Z,13.2
2015-11-15T11:04:58.878Z,13.2
2015-11-15T11:05:58.818Z,13.2
2015-11-15T11:06:58.758Z,13.2
2015-11-15T11:07:58.713Z,13.1
2015-11-15T11:08:58.655Z,13.1
2015-11-15T11:09:58.626Z,13.2
2015-11-15T11:10:58.550Z,13.2
2015-11-15T11:11:58.507Z,13.2
2015-11-15T11:12:58.446Z,13.2
2015-11-15T11:13:58.388Z,13.2
2015-11-15T11:14:58.343Z,13.2
2015-11-15T11:15:58.299Z,13.2
2015-11-15T11:16:58.239Z,13.2
2015-11-15T11:17:58.195Z,13.2
2015-11-15T11:18:58.133Z,13.2
2015-11-15T11:19:58.088Z,13.2
2015-11-15T11:20:58.028Z,13.2
2015-11-15T11:21:57.984Z,13.1
2015-11-15T11:22:57.924Z,13.2
2015-11-15T11:23:57.865Z,13.2
2015-11-15T11:24:57.821Z,13.2
2015-11-15T11:25:57.760Z,13.1
2015-11-15T11:26:57.717Z,13.2
2015-11-15T11:27:57.657Z,13.2
2015-11-15T11:28:57.613Z,13.1
2015-11-15T11:29:57.554Z,13.1
2015-11-15T11:30:57.509Z,13.1
2015-11-15T11:31:57.465Z,13.1
2015-11-15T11:32:57.405Z,13.1
2015-11-15T11:33:57.346Z,13.1
2015-11-15T11:34:57.302Z,13.1
2015-11-15T11:35:57.241Z,13.1
2015-11-15T11:36:57.198Z,13.1
2015-11-15T11:37:57.138Z,13.1
2015-11-15T11:38:57.094Z,13.1
2015-11-15T11:39:57.050Z,13.1
2015-11-15T11:40:56.990Z,13.1
2015-11-15T11:41:56.946Z,13.1
2015-11-15T11:42:56.886Z,13.1
2015-11-15T11:43:56.826Z,13.1
2015-11-15T11:44:56.766Z,13.1
2015-11-15T11:45:56.723Z,13.1
2015-11-15T11:46:56.663Z,13.1
2015-11-15T11:47:56.619Z,13.1
2015-11-15T11:48:56.559Z,13.2
2015-11-15T11:49:56.515Z,13.1
2015-11-15T11:50:56.471Z,13.2
2015-11-15T11:51:56.410Z,13.2
2015-11-15T11:52:56.351Z,13.2
2015-11-15T11:53:56.291Z,13.2
2015-11-15T11:54:56.248Z,13.2
2015-11-15T11:55:56.204Z,13.2
2015-11-15T11:56:56.143Z,13.2
2015-11-15T11:57:56.096Z,13.2
2015-11-15T11:58:56.037Z,13.2
2015-11-15T11:59:55.992Z,13.2
2015-11-15T12:00:55.933Z,13.2
2015-11-15T12:01:55.873Z,13.2
2015-11-15T12:02:55.845Z,13.3
2015-11-15T12:03:55.785Z,13.3
2015-11-15T12:04:55.725Z,13.3
2015-11-15T12:05:55.665Z,13.3
2015-11-15T12:06:55.620Z,13.3
2015-11-15T12:07:55.561Z,13.3
2015-11-15T12:08:55.517Z,13.3
2015-11-15T12:09:55.457Z,13.4
2015-11-15T12:10:55.414Z,13.3
2015-11-15T12:11:55.354Z,13.4
2015-11-15T12:12:55.309Z,13.4
2015-11-15T12:13:55.250Z,13.4
2015-11-15T12:14:55.206Z,13.4
2015-11-15T12:15:55.162Z,13.5
2015-11-15T12:16:55.101Z,13.4
2015-11-15T12:17:55.042Z,13.4
2015-11-15T12:18:54.998Z,13.4
2015-11-15T12:19:54.939Z,13.4
2015-11-15T12:20:54.895Z,13.5
2015-11-15T12:21:54.834Z,13.4
2015-11-15T12:22:54.790Z,13.4
2015-11-15T12:23:54.731Z,13.5
2015-11-15T12:24:54.703Z,13.5
2015-11-15T12:25:54.627Z,13.5
2015-11-15T12:26:54.583Z,13.5
2015-11-15T12:27:54.523Z,13.5
2015-11-15T12:28:54.478Z,13.5
2015-11-15T12:29:54.420Z,13.4
2015-11-15T12:30:54.375Z,13.4
2015-11-15T12:31:54.315Z,13.5
2015-11-15T12:32:54.271Z,13.5
2015-11-15T12:33:54.212Z,13.6
2015-11-15T12:34:54.167Z,13.5
2015-11-15T12:35:54.122Z,13.5
2015-11-15T12:36:54.060Z,13.5
2015-11-15T12:37:54.000Z,13.5
2015-11-15T12:38:53.956Z,13.5
2015-11-15T12:39:53.897Z,13.5
2015-11-15T12:40:53.836Z,13.5
2015-11-15T12:41:53.792Z,13.5
2015-11-15T12:42:53.749Z,13.5
2015-11-15T12:43:53.689Z,13.4
2015-11-15T12:44:53.645Z,13.4
2015-11-15T12:45:53.586Z,13.4
2015-11-15T12:46:53.541Z,13.4
2015-11-15T12:47:53.481Z,13.4
2015-11-15T12:48:53.437Z,13.4
2015-11-15T12:49:53.377Z,13.4
2015-11-15T12:50:53.333Z,13.4
2015-11-15T12:51:53.274Z,13.4
2015-11-15T12:52:53.230Z,13.5
2015-11-15T12:53:53.170Z,13.5
2015-11-15T12:54:53.110Z,13.4
2015-11-15T12:55:53.066Z,13.4
2015-11-15T12:56:53.022Z,13.4
2015-11-15T12:57:52.962Z,13.4
2015-11-15T12:58:52.917Z,13.4
2015-11-15T12:59:52.857Z,13.4
2015-11-15T13:00:52.813Z,13.4
2015-11-15T13:01:52.754Z,13.3
2015-11-15T13:02:52.741Z,13.3
2015-11-15T13:03:52.649Z,13.3
2015-11-15T13:04:52.605Z,13.4
2015-11-15T13:05:52.546Z,13.3
2015-11-15T13:06:52.501Z,13.3
2015-11-15T13:07:52.442Z,13.4
2015-11-15T13:08:52.382Z,13.3
2015-11-15T13:09:52.338Z,13.3
2015-11-15T13:10:52.278Z,13.3
2015-11-15T13:11:52.234Z,13.3
2015-11-15T13:12:52.174Z,13.3
2015-11-15T13:13:52.129Z,13.2
2015-11-15T13:14:52.070Z,13.3
2015-11-15T13:15:52.026Z,13.2
2015-11-15T13:16:51.964Z,13.2
2015-11-15T13:17:51.920Z,13.2
2015-11-15T13:18:51.875Z,13.1
2015-11-15T13:19:51.815Z,13.1
2015-11-15T13:20:51.771Z,13.1
2015-11-15T13:21:51.712Z,13.1
2015-11-15T13:22:51.652Z,13.1
2015-11-15T13:23:51.609Z,13
2015-11-15T13:24:51.548Z,13
2015-11-15T13:25:51.489Z,13.1
2015-11-15T13:26:51.444Z,13.1
2015-11-15T13:27:51.400Z,13
2015-11-15T13:28:51.340Z,13
2015-11-15T13:29:51.281Z,13
2015-11-15T13:30:51.252Z,13
2015-11-15T13:31:51.176Z,13
2015-11-15T13:32:51.133Z,13
2015-11-15T13:33:51.073Z,13
2015-11-15T13:34:51.028Z,13
2015-11-15T13:35:50.969Z,13
2015-11-15T13:36:50.925Z,13
2015-11-15T13:37:50.865Z,13